sensor_id;sensor_type;location;lat;lon;timestamp;temperature;humidity
19952;DHT22;10137;49.406;19.484;2023-04-24T00:01:36;6.90;99.90
19952;DHT22;10137;49.406;19.484;2023-04-24T00:04:07;7.00;99.90
19952;DHT22;10137;49.406;19.484;2023-04-24T00:06:37;7.00;99.90
19952;DHT22;10137;49.406;19.484;2023-04-24T00:09:10;7.10;99.90
19952;DHT22;10137;49.406;19.484;2023-04-24T00:11:39;7.20;99.90
19952;DHT22;10137;49.406;19.484;2023-04-24T00:14:09;7.10;99.90
19952;DHT22;10137;49.406;19.484;2023-04-24T00:16:38;7.00;99.90
19952;DHT22;10137;49.406;19.484;2023-04-24T00:19:07;6.90;99.90
19952;DHT22;10137;49.406;19.484;2023-04-24T00:21:35;6.90;99.90
19952;DHT22;10137;49.406;19.484;2023-04-24T00:24:04;6.80;99.90
19952;DHT22;10137;49.406;19.484;2023-04-24T00:26:32;6.70;99.90
19952;DHT22;10137;49.406;19.484;2023-04-24T00:28:59;6.70;99.90
19952;DHT22;10137;49.406;19.484;2023-04-24T00:31:28;6.80;99.90
19952;DHT22;10137;49.406;19.484;2023-04-24T00:33:57;6.80;99.90
19952;DHT22;10137;49.406;19.484;2023-04-24T00:36:27;6.90;99.90
19952;DHT22;10137;49.406;19.484;2023-04-24T00:38:56;6.80;99.90
19952;DHT22;10137;49.406;19.484;2023-04-24T00:41:25;6.80;99.90
19952;DHT22;10137;49.406;19.484;2023-04-24T00:43:53;6.90;99.90
19952;DHT22;10137;49.406;19.484;2023-04-24T00:46:22;6.80;99.90
19952;DHT22;10137;49.406;19.484;2023-04-24T00:48:50;6.80;99.90
19952;DHT22;10137;49.406;19.484;2023-04-24T00:51:17;6.70;99.90
19952;DHT22;10137;49.406;19.484;2023-04-24T00:53:47;6.60;99.90
19952;DHT22;10137;49.406;19.484;2023-04-24T00:56:18;6.60;99.90
19952;DHT22;10137;49.406;19.484;2023-04-24T00:58:47;6.50;99.90
19952;DHT22;10137;49.406;19.484;2023-04-24T01:01:15;6.50;99.90
19952;DHT22;10137;49.406;19.484;2023-04-24T01:03:44;6.60;99.90
19952;DHT22;10137;49.406;19.484;2023-04-24T01:06:13;6.50;99.90
19952;DHT22;10137;49.406;19.484;2023-04-24T01:08:42;6.50;99.90
19952;DHT22;10137;49.406;19.484;2023-04-24T01:11:11;6.50;99.90
19952;DHT22;10137;49.406;19.484;2023-04-24T01:13:38;6.60;99.90
19952;DHT22;10137;49.406;19.484;2023-04-24T01:16:06;6.50;99.90
19952;DHT22;10137;49.406;19.484;2023-04-24T01:18:35;6.50;99.90
19952;DHT22;10137;49.406;19.484;2023-04-24T01:21:04;6.50;99.90
19952;DHT22;10137;49.406;19.484;2023-04-24T01:23:34;6.50;99.90
19952;DHT22;10137;49.406;19.484;2023-04-24T01:26:02;6.40;99.90
19952;DHT22;10137;49.406;19.484;2023-04-24T01:28:33;6.40;99.90
19952;DHT22;10137;49.406;19.484;2023-04-24T01:31:01;6.20;99.90
19952;DHT22;10137;49.406;19.484;2023-04-24T01:33:29;6.20;99.90
19952;DHT22;10137;49.406;19.484;2023-04-24T01:35:56;6.20;99.90
19952;DHT22;10137;49.406;19.484;2023-04-24T01:38:25;6.10;99.90
19952;DHT22;10137;49.406;19.484;2023-04-24T01:40:53;6.10;99.90
19952;DHT22;10137;49.406;19.484;2023-04-24T01:43:21;5.80;99.90
19952;DHT22;10137;49.406;19.484;2023-04-24T01:45:49;5.90;99.90
19952;DHT22;10137;49.406;19.484;2023-04-24T01:48:18;5.90;99.90
19952;DHT22;10137;49.406;19.484;2023-04-24T01:50:46;5.80;99.90
19952;DHT22;10137;49.406;19.484;2023-04-24T01:53:13;5.70;99.90
19952;DHT22;10137;49.406;19.484;2023-04-24T01:55:40;5.80;99.90
19952;DHT22;10137;49.406;19.484;2023-04-24T01:58:09;5.70;99.90
19952;DHT22;10137;49.406;19.484;2023-04-24T02:00:36;5.60;99.90
19952;DHT22;10137;49.406;19.484;2023-04-24T02:03:04;5.40;99.90
19952;DHT22;10137;49.406;19.484;2023-04-24T02:05:32;5.30;99.90
19952;DHT22;10137;49.406;19.484;2023-04-24T02:08:01;5.40;99.90
19952;DHT22;10137;49.406;19.484;2023-04-24T02:10:29;5.40;99.90
19952;DHT22;10137;49.406;19.484;2023-04-24T02:12:57;5.50;99.90
19952;DHT22;10137;49.406;19.484;2023-04-24T02:15:28;5.40;99.90
19952;DHT22;10137;49.406;19.484;2023-04-24T02:17:55;5.30;99.90
19952;DHT22;10137;49.406;19.484;2023-04-24T02:20:23;5.30;99.90
19952;DHT22;10137;49.406;19.484;2023-04-24T02:22:51;5.20;99.90
19952;DHT22;10137;49.406;19.484;2023-04-24T02:25:19;5.40;99.90
19952;DHT22;10137;49.406;19.484;2023-04-24T02:27:47;5.30;99.90
19952;DHT22;10137;49.406;19.484;2023-04-24T02:30:15;5.20;99.90
19952;DHT22;10137;49.406;19.484;2023-04-24T02:32:45;5.40;99.90
19952;DHT22;10137;49.406;19.484;2023-04-24T02:35:12;5.30;99.90
19952;DHT22;10137;49.406;19.484;2023-04-24T02:37:40;5.30;99.90
19952;DHT22;10137;49.406;19.484;2023-04-24T02:40:09;5.10;99.90
19952;DHT22;10137;49.406;19.484;2023-04-24T02:42:39;5.10;99.90
19952;DHT22;10137;49.406;19.484;2023-04-24T02:45:08;5.00;99.90
19952;DHT22;10137;49.406;19.484;2023-04-24T02:47:36;4.80;99.90
19952;DHT22;10137;49.406;19.484;2023-04-24T02:50:09;4.60;99.90
19952;DHT22;10137;49.406;19.484;2023-04-24T02:52:37;4.70;99.90
19952;DHT22;10137;49.406;19.484;2023-04-24T02:55:06;4.90;99.90
19952;DHT22;10137;49.406;19.484;2023-04-24T02:57:34;5.00;99.90
19952;DHT22;10137;49.406;19.484;2023-04-24T03:00:03;4.90;99.90
19952;DHT22;10137;49.406;19.484;2023-04-24T03:02:33;4.70;99.90
19952;DHT22;10137;49.406;19.484;2023-04-24T03:05:01;4.80;99.90
19952;DHT22;10137;49.406;19.484;2023-04-24T03:07:32;4.80;99.90
19952;DHT22;10137;49.406;19.484;2023-04-24T03:10:00;4.60;99.90
19952;DHT22;10137;49.406;19.484;2023-04-24T03:12:29;4.50;99.90
19952;DHT22;10137;49.406;19.484;2023-04-24T03:14:57;4.50;99.90
19952;DHT22;10137;49.406;19.484;2023-04-24T03:17:26;4.60;99.90
19952;DHT22;10137;49.406;19.484;2023-04-24T03:19:54;4.60;99.90
19952;DHT22;10137;49.406;19.484;2023-04-24T03:22:25;4.60;99.90
19952;DHT22;10137;49.406;19.484;2023-04-24T03:24:58;4.40;99.90
19952;DHT22;10137;49.406;19.484;2023-04-24T03:27:26;4.50;99.90
19952;DHT22;10137;49.406;19.484;2023-04-24T03:29:54;4.30;99.90
19952;DHT22;10137;49.406;19.484;2023-04-24T03:32:23;4.50;99.90
19952;DHT22;10137;49.406;19.484;2023-04-24T03:34:51;4.40;99.90
19952;DHT22;10137;49.406;19.484;2023-04-24T03:37:20;4.50;99.90
19952;DHT22;10137;49.406;19.484;2023-04-24T03:39:48;4.50;99.90
19952;DHT22;10137;49.406;19.484;2023-04-24T03:42:17;4.60;99.90
19952;DHT22;10137;49.406;19.484;2023-04-24T03:44:45;4.60;99.90
19952;DHT22;10137;49.406;19.484;2023-04-24T03:47:13;4.70;99.90
19952;DHT22;10137;49.406;19.484;2023-04-24T03:49:42;4.60;99.90
19952;DHT22;10137;49.406;19.484;2023-04-24T03:52:10;4.70;99.90
19952;DHT22;10137;49.406;19.484;2023-04-24T03:54:38;4.70;99.90
19952;DHT22;10137;49.406;19.484;2023-04-24T03:57:06;4.80;99.90
19952;DHT22;10137;49.406;19.484;2023-04-24T03:59:36;4.90;99.90
19952;DHT22;10137;49.406;19.484;2023-04-24T04:02:04;4.90;99.90
19952;DHT22;10137;49.406;19.484;2023-04-24T04:04:32;5.00;99.90
19952;DHT22;10137;49.406;19.484;2023-04-24T04:07:01;5.10;99.90
19952;DHT22;10137;49.406;19.484;2023-04-24T04:09:29;5.20;99.90
19952;DHT22;10137;49.406;19.484;2023-04-24T04:11:57;5.20;99.90
19952;DHT22;10137;49.406;19.484;2023-04-24T04:14:27;5.40;99.90
19952;DHT22;10137;49.406;19.484;2023-04-24T04:16:57;5.50;99.90
19952;DHT22;10137;49.406;19.484;2023-04-24T04:19:24;5.60;99.90
19952;DHT22;10137;49.406;19.484;2023-04-24T04:21:55;5.80;99.90
19952;DHT22;10137;49.406;19.484;2023-04-24T04:24:22;5.90;99.90
19952;DHT22;10137;49.406;19.484;2023-04-24T04:26:51;6.00;99.90
19952;DHT22;10137;49.406;19.484;2023-04-24T04:29:23;6.10;99.90
19952;DHT22;10137;49.406;19.484;2023-04-24T04:31:52;6.20;99.90
19952;DHT22;10137;49.406;19.484;2023-04-24T04:34:23;6.30;99.90
19952;DHT22;10137;49.406;19.484;2023-04-24T04:36:50;6.40;99.90
19952;DHT22;10137;49.406;19.484;2023-04-24T04:39:18;6.50;99.90
19952;DHT22;10137;49.406;19.484;2023-04-24T04:41:49;6.70;99.90
19952;DHT22;10137;49.406;19.484;2023-04-24T04:44:18;6.80;99.90
19952;DHT22;10137;49.406;19.484;2023-04-24T04:46:46;7.00;99.90
19952;DHT22;10137;49.406;19.484;2023-04-24T04:49:14;7.20;99.90
19952;DHT22;10137;49.406;19.484;2023-04-24T04:51:44;7.40;99.90
19952;DHT22;10137;49.406;19.484;2023-04-24T04:54:13;7.70;99.90
19952;DHT22;10137;49.406;19.484;2023-04-24T04:56:44;7.80;99.90
19952;DHT22;10137;49.406;19.484;2023-04-24T04:59:12;7.90;99.90
19952;DHT22;10137;49.406;19.484;2023-04-24T05:01:41;8.00;99.90
19952;DHT22;10137;49.406;19.484;2023-04-24T05:04:09;8.10;99.90
19952;DHT22;10137;49.406;19.484;2023-04-24T05:06:37;8.20;99.90
19952;DHT22;10137;49.406;19.484;2023-04-24T05:09:09;8.40;99.90
19952;DHT22;10137;49.406;19.484;2023-04-24T05:11:38;8.50;99.90
19952;DHT22;10137;49.406;19.484;2023-04-24T05:14:06;8.60;99.90
19952;DHT22;10137;49.406;19.484;2023-04-24T05:16:36;8.70;99.90
19952;DHT22;10137;49.406;19.484;2023-04-24T05:19:03;8.80;99.90
19952;DHT22;10137;49.406;19.484;2023-04-24T05:21:30;8.90;99.90
19952;DHT22;10137;49.406;19.484;2023-04-24T05:23:59;9.10;99.90
19952;DHT22;10137;49.406;19.484;2023-04-24T05:26:31;9.20;99.90
19952;DHT22;10137;49.406;19.484;2023-04-24T05:28:58;9.60;99.90
19952;DHT22;10137;49.406;19.484;2023-04-24T05:31:25;9.70;99.90
19952;DHT22;10137;49.406;19.484;2023-04-24T05:33:52;9.70;99.90
19952;DHT22;10137;49.406;19.484;2023-04-24T05:36:19;10.10;99.90
19952;DHT22;10137;49.406;19.484;2023-04-24T05:38:47;10.30;99.90
19952;DHT22;10137;49.406;19.484;2023-04-24T05:41:14;10.40;99.90
19952;DHT22;10137;49.406;19.484;2023-04-24T05:43:43;10.40;99.90
19952;DHT22;10137;49.406;19.484;2023-04-24T05:46:11;10.60;99.90
19952;DHT22;10137;49.406;19.484;2023-04-24T05:48:39;10.70;99.90
19952;DHT22;10137;49.406;19.484;2023-04-24T05:51:08;10.70;99.90
19952;DHT22;10137;49.406;19.484;2023-04-24T05:53:36;10.80;99.90
19952;DHT22;10137;49.406;19.484;2023-04-24T05:56:05;11.00;99.90
19952;DHT22;10137;49.406;19.484;2023-04-24T05:58:33;11.00;99.90
19952;DHT22;10137;49.406;19.484;2023-04-24T06:01:03;11.10;99.90
19952;DHT22;10137;49.406;19.484;2023-04-24T06:03:32;11.00;99.90
19952;DHT22;10137;49.406;19.484;2023-04-24T06:06:00;10.90;99.90
19952;DHT22;10137;49.406;19.484;2023-04-24T06:08:29;10.80;99.90
19952;DHT22;10137;49.406;19.484;2023-04-24T06:10:57;10.70;99.90
19952;DHT22;10137;49.406;19.484;2023-04-24T06:13:25;10.70;99.90
19952;DHT22;10137;49.406;19.484;2023-04-24T06:15:53;10.60;99.90
19952;DHT22;10137;49.406;19.484;2023-04-24T06:18:23;10.70;99.90
19952;DHT22;10137;49.406;19.484;2023-04-24T06:20:51;10.70;99.90
19952;DHT22;10137;49.406;19.484;2023-04-24T06:23:19;10.90;99.90
19952;DHT22;10137;49.406;19.484;2023-04-24T06:25:48;11.10;99.90
19952;DHT22;10137;49.406;19.484;2023-04-24T06:28:15;11.20;99.90
19952;DHT22;10137;49.406;19.484;2023-04-24T06:30:42;11.40;99.90
19952;DHT22;10137;49.406;19.484;2023-04-24T06:33:10;11.60;99.90
19952;DHT22;10137;49.406;19.484;2023-04-24T06:35:38;12.00;99.90
19952;DHT22;10137;49.406;19.484;2023-04-24T06:38:05;12.10;99.90
19952;DHT22;10137;49.406;19.484;2023-04-24T06:40:33;12.20;99.90
19952;DHT22;10137;49.406;19.484;2023-04-24T06:43:00;12.30;99.90
19952;DHT22;10137;49.406;19.484;2023-04-24T06:45:28;12.50;99.90
19952;DHT22;10137;49.406;19.484;2023-04-24T06:47:55;12.60;99.90
19952;DHT22;10137;49.406;19.484;2023-04-24T06:50:23;12.30;99.90
19952;DHT22;10137;49.406;19.484;2023-04-24T06:52:51;12.20;99.90
19952;DHT22;10137;49.406;19.484;2023-04-24T06:55:18;11.90;99.90
19952;DHT22;10137;49.406;19.484;2023-04-24T06:57:45;11.90;99.90
19952;DHT22;10137;49.406;19.484;2023-04-24T07:00:13;11.70;99.90
19952;DHT22;10137;49.406;19.484;2023-04-24T07:02:40;11.70;99.90
19952;DHT22;10137;49.406;19.484;2023-04-24T07:05:07;11.60;99.90
19952;DHT22;10137;49.406;19.484;2023-04-24T07:07:35;11.40;99.90
19952;DHT22;10137;49.406;19.484;2023-04-24T07:10:06;11.40;99.90
19952;DHT22;10137;49.406;19.484;2023-04-24T07:12:34;11.50;99.90
19952;DHT22;10137;49.406;19.484;2023-04-24T07:15:01;11.50;99.90
19952;DHT22;10137;49.406;19.484;2023-04-24T07:17:29;11.50;99.90
19952;DHT22;10137;49.406;19.484;2023-04-24T07:19:56;11.50;99.90
19952;DHT22;10137;49.406;19.484;2023-04-24T07:22:23;11.50;99.90
19952;DHT22;10137;49.406;19.484;2023-04-24T07:24:50;11.60;99.90
19952;DHT22;10137;49.406;19.484;2023-04-24T07:27:19;11.60;99.90
19952;DHT22;10137;49.406;19.484;2023-04-24T07:29:46;11.70;99.90
19952;DHT22;10137;49.406;19.484;2023-04-24T07:32:13;11.80;99.90
19952;DHT22;10137;49.406;19.484;2023-04-24T07:34:40;11.90;99.90
19952;DHT22;10137;49.406;19.484;2023-04-24T07:37:07;12.10;99.90
19952;DHT22;10137;49.406;19.484;2023-04-24T07:39:34;12.10;99.90
19952;DHT22;10137;49.406;19.484;2023-04-24T07:42:01;12.40;99.90
19952;DHT22;10137;49.406;19.484;2023-04-24T07:44:30;12.70;99.90
19952;DHT22;10137;49.406;19.484;2023-04-24T07:46:57;13.10;99.90
19952;DHT22;10137;49.406;19.484;2023-04-24T07:49:25;13.60;99.90
19952;DHT22;10137;49.406;19.484;2023-04-24T07:51:53;14.10;99.90
19952;DHT22;10137;49.406;19.484;2023-04-24T07:54:20;14.30;99.90
19952;DHT22;10137;49.406;19.484;2023-04-24T07:56:48;14.50;99.90
19952;DHT22;10137;49.406;19.484;2023-04-24T07:59:15;14.50;98.60
19952;DHT22;10137;49.406;19.484;2023-04-24T08:01:43;14.40;97.30
19952;DHT22;10137;49.406;19.484;2023-04-24T08:04:11;14.50;97.50
19952;DHT22;10137;49.406;19.484;2023-04-24T08:06:38;14.60;96.00
19952;DHT22;10137;49.406;19.484;2023-04-24T08:09:05;15.00;96.40
19952;DHT22;10137;49.406;19.484;2023-04-24T08:11:32;15.20;94.90
19952;DHT22;10137;49.406;19.484;2023-04-24T08:13:59;15.10;93.30
19952;DHT22;10137;49.406;19.484;2023-04-24T08:16:26;14.80;93.40
19952;DHT22;10137;49.406;19.484;2023-04-24T08:18:54;14.80;94.70
19952;DHT22;10137;49.406;19.484;2023-04-24T08:21:21;14.80;93.30
19952;DHT22;10137;49.406;19.484;2023-04-24T08:23:49;14.50;92.90
19952;DHT22;10137;49.406;19.484;2023-04-24T08:26:16;14.60;94.00
19952;DHT22;10137;49.406;19.484;2023-04-24T08:28:43;14.60;93.70
19952;DHT22;10137;49.406;19.484;2023-04-24T08:31:10;14.70;94.20
19952;DHT22;10137;49.406;19.484;2023-04-24T08:33:37;14.90;94.10
19952;DHT22;10137;49.406;19.484;2023-04-24T08:36:09;14.90;93.20
19952;DHT22;10137;49.406;19.484;2023-04-24T08:38:36;14.90;93.50
19952;DHT22;10137;49.406;19.484;2023-04-24T08:41:03;14.90;93.40
19952;DHT22;10137;49.406;19.484;2023-04-24T08:43:33;14.90;93.20
19952;DHT22;10137;49.406;19.484;2023-04-24T08:46:03;15.10;92.60
19952;DHT22;10137;49.406;19.484;2023-04-24T08:48:31;15.00;91.00
19952;DHT22;10137;49.406;19.484;2023-04-24T08:50:59;15.00;90.50
19952;DHT22;10137;49.406;19.484;2023-04-24T08:53:28;15.00;90.70
19952;DHT22;10137;49.406;19.484;2023-04-24T08:55:55;14.90;90.60
19952;DHT22;10137;49.406;19.484;2023-04-24T08:58:24;14.80;90.00
19952;DHT22;10137;49.406;19.484;2023-04-24T09:00:53;14.70;91.00
19952;DHT22;10137;49.406;19.484;2023-04-24T09:03:21;14.80;92.00
19952;DHT22;10137;49.406;19.484;2023-04-24T09:05:49;14.80;92.00
19952;DHT22;10137;49.406;19.484;2023-04-24T09:08:18;14.70;91.10
19952;DHT22;10137;49.406;19.484;2023-04-24T09:10:46;14.80;91.60
19952;DHT22;10137;49.406;19.484;2023-04-24T09:13:14;14.80;91.40
19952;DHT22;10137;49.406;19.484;2023-04-24T09:15:42;14.90;91.70
19952;DHT22;10137;49.406;19.484;2023-04-24T09:18:09;15.00;92.10
19952;DHT22;10137;49.406;19.484;2023-04-24T09:20:57;15.00;91.70
19952;DHT22;10137;49.406;19.484;2023-04-24T09:23:27;15.00;90.50
19952;DHT22;10137;49.406;19.484;2023-04-24T09:25:56;14.90;90.90
19952;DHT22;10137;49.406;19.484;2023-04-24T09:28:30;14.80;90.00
19952;DHT22;10137;49.406;19.484;2023-04-24T09:31:08;14.80;89.50
19952;DHT22;10137;49.406;19.484;2023-04-24T09:33:36;14.90;87.40
19952;DHT22;10137;49.406;19.484;2023-04-24T09:36:08;15.00;86.50
19952;DHT22;10137;49.406;19.484;2023-04-24T09:38:38;15.10;86.70
19952;DHT22;10137;49.406;19.484;2023-04-24T09:41:08;15.10;87.10
19952;DHT22;10137;49.406;19.484;2023-04-24T09:43:43;15.20;86.40
19952;DHT22;10137;49.406;19.484;2023-04-24T09:46:11;15.10;85.40
19952;DHT22;10137;49.406;19.484;2023-04-24T09:48:40;15.10;85.20
19952;DHT22;10137;49.406;19.484;2023-04-24T09:51:08;15.00;85.50
19952;DHT22;10137;49.406;19.484;2023-04-24T09:53:38;14.80;85.30
19952;DHT22;10137;49.406;19.484;2023-04-24T09:56:12;14.70;85.90
19952;DHT22;10137;49.406;19.484;2023-04-24T09:58:48;14.60;87.20
19952;DHT22;10137;49.406;19.484;2023-04-24T10:01:17;14.60;87.30
19952;DHT22;10137;49.406;19.484;2023-04-24T10:03:56;14.60;89.10
19952;DHT22;10137;49.406;19.484;2023-04-24T10:06:30;14.50;87.90
19952;DHT22;10137;49.406;19.484;2023-04-24T10:08:59;14.50;88.40
19952;DHT22;10137;49.406;19.484;2023-04-24T10:11:29;14.50;89.90
19952;DHT22;10137;49.406;19.484;2023-04-24T10:13:58;14.50;90.50
19952;DHT22;10137;49.406;19.484;2023-04-24T10:16:27;14.50;90.70
19952;DHT22;10137;49.406;19.484;2023-04-24T10:18:55;14.40;91.30
19952;DHT22;10137;49.406;19.484;2023-04-24T10:21:24;14.30;90.70
19952;DHT22;10137;49.406;19.484;2023-04-24T10:23:53;14.30;90.40
19952;DHT22;10137;49.406;19.484;2023-04-24T10:26:22;14.30;90.60
19952;DHT22;10137;49.406;19.484;2023-04-24T10:28:54;14.20;91.30
19952;DHT22;10137;49.406;19.484;2023-04-24T10:31:25;14.10;91.50
19952;DHT22;10137;49.406;19.484;2023-04-24T10:33:54;14.10;91.70
19952;DHT22;10137;49.406;19.484;2023-04-24T10:36:24;14.00;92.70
19952;DHT22;10137;49.406;19.484;2023-04-24T10:38:55;13.70;94.30
19952;DHT22;10137;49.406;19.484;2023-04-24T10:41:26;13.70;95.60
19952;DHT22;10137;49.406;19.484;2023-04-24T10:44:11;13.60;97.00
19952;DHT22;10137;49.406;19.484;2023-04-24T10:46:44;13.50;97.50
19952;DHT22;10137;49.406;19.484;2023-04-24T10:49:14;13.40;99.40
19952;DHT22;10137;49.406;19.484;2023-04-24T10:51:49;13.40;99.90
19952;DHT22;10137;49.406;19.484;2023-04-24T10:54:25;13.30;99.30
19952;DHT22;10137;49.406;19.484;2023-04-24T10:57:26;13.20;99.90
19952;DHT22;10137;49.406;19.484;2023-04-24T11:00:14;13.00;99.90
19952;DHT22;10137;49.406;19.484;2023-04-24T11:02:46;13.00;99.90
19952;DHT22;10137;49.406;19.484;2023-04-24T11:05:17;13.00;99.90
19952;DHT22;10137;49.406;19.484;2023-04-24T11:08:11;12.80;99.90
19952;DHT22;10137;49.406;19.484;2023-04-24T11:10:41;12.80;99.90
19952;DHT22;10137;49.406;19.484;2023-04-24T11:13:14;12.70;99.90
19952;DHT22;10137;49.406;19.484;2023-04-24T11:15:44;12.60;99.90
19952;DHT22;10137;49.406;19.484;2023-04-24T11:18:37;12.60;99.90
19952;DHT22;10137;49.406;19.484;2023-04-24T11:21:10;12.60;99.90
19952;DHT22;10137;49.406;19.484;2023-04-24T11:23:39;12.60;99.90
19952;DHT22;10137;49.406;19.484;2023-04-24T11:26:12;12.50;99.90
19952;DHT22;10137;49.406;19.484;2023-04-24T11:28:50;12.60;99.90
19952;DHT22;10137;49.406;19.484;2023-04-24T11:31:40;12.60;99.90
19952;DHT22;10137;49.406;19.484;2023-04-24T11:34:09;12.60;99.90
19952;DHT22;10137;49.406;19.484;2023-04-24T11:36:39;12.50;99.90
19952;DHT22;10137;49.406;19.484;2023-04-24T11:39:07;12.30;99.90
19952;DHT22;10137;49.406;19.484;2023-04-24T11:41:37;12.30;99.90
19952;DHT22;10137;49.406;19.484;2023-04-24T11:44:07;12.30;99.90
19952;DHT22;10137;49.406;19.484;2023-04-24T11:46:36;12.30;99.90
19952;DHT22;10137;49.406;19.484;2023-04-24T11:49:08;12.20;99.90
19952;DHT22;10137;49.406;19.484;2023-04-24T11:51:38;12.00;99.90
19952;DHT22;10137;49.406;19.484;2023-04-24T11:54:08;12.00;99.90
19952;DHT22;10137;49.406;19.484;2023-04-24T11:56:36;12.00;99.90
19952;DHT22;10137;49.406;19.484;2023-04-24T11:59:05;11.90;99.90
19952;DHT22;10137;49.406;19.484;2023-04-24T12:01:43;11.80;99.90
19952;DHT22;10137;49.406;19.484;2023-04-24T12:04:12;11.90;99.90
19952;DHT22;10137;49.406;19.484;2023-04-24T12:06:58;11.80;99.90
19952;DHT22;10137;49.406;19.484;2023-04-24T12:09:26;11.80;99.90
19952;DHT22;10137;49.406;19.484;2023-04-24T12:11:55;11.60;99.90
19952;DHT22;10137;49.406;19.484;2023-04-24T12:14:24;11.60;99.90
19952;DHT22;10137;49.406;19.484;2023-04-24T12:16:53;11.50;99.90
19952;DHT22;10137;49.406;19.484;2023-04-24T12:19:24;11.60;99.90
19952;DHT22;10137;49.406;19.484;2023-04-24T12:22:03;11.70;99.90
19952;DHT22;10137;49.406;19.484;2023-04-24T12:24:31;11.60;99.90
19952;DHT22;10137;49.406;19.484;2023-04-24T12:26:59;11.50;99.90
19952;DHT22;10137;49.406;19.484;2023-04-24T12:29:28;11.50;99.90
19952;DHT22;10137;49.406;19.484;2023-04-24T12:31:57;11.40;99.90
19952;DHT22;10137;49.406;19.484;2023-04-24T12:34:31;11.50;99.90
19952;DHT22;10137;49.406;19.484;2023-04-24T12:37:10;11.50;99.90
19952;DHT22;10137;49.406;19.484;2023-04-24T12:39:57;11.50;99.90
19952;DHT22;10137;49.406;19.484;2023-04-24T12:42:27;11.50;99.90
19952;DHT22;10137;49.406;19.484;2023-04-24T12:44:57;11.50;99.90
19952;DHT22;10137;49.406;19.484;2023-04-24T12:47:27;11.60;99.90
19952;DHT22;10137;49.406;19.484;2023-04-24T12:50:00;11.70;99.90
19952;DHT22;10137;49.406;19.484;2023-04-24T12:52:29;11.70;99.90
19952;DHT22;10137;49.406;19.484;2023-04-24T12:54:59;11.70;99.90
19952;DHT22;10137;49.406;19.484;2023-04-24T12:57:28;11.80;99.90
19952;DHT22;10137;49.406;19.484;2023-04-24T12:59:58;11.80;99.90
19952;DHT22;10137;49.406;19.484;2023-04-24T13:02:28;11.70;99.90
19952;DHT22;10137;49.406;19.484;2023-04-24T13:05:00;11.70;99.90
19952;DHT22;10137;49.406;19.484;2023-04-24T13:07:28;11.60;99.90
19952;DHT22;10137;49.406;19.484;2023-04-24T13:09:56;11.50;99.90
19952;DHT22;10137;49.406;19.484;2023-04-24T13:12:25;11.60;99.90
19952;DHT22;10137;49.406;19.484;2023-04-24T13:14:53;11.50;99.90
19952;DHT22;10137;49.406;19.484;2023-04-24T13:17:22;11.40;99.90
19952;DHT22;10137;49.406;19.484;2023-04-24T13:19:53;11.50;99.90
19952;DHT22;10137;49.406;19.484;2023-04-24T13:22:24;11.60;99.90
19952;DHT22;10137;49.406;19.484;2023-04-24T13:24:54;11.60;99.90
19952;DHT22;10137;49.406;19.484;2023-04-24T13:27:22;11.60;99.90
19952;DHT22;10137;49.406;19.484;2023-04-24T13:29:51;11.60;99.90
19952;DHT22;10137;49.406;19.484;2023-04-24T13:32:19;11.60;99.90
19952;DHT22;10137;49.406;19.484;2023-04-24T13:34:47;11.70;99.90
19952;DHT22;10137;49.406;19.484;2023-04-24T13:37:15;11.70;99.90
19952;DHT22;10137;49.406;19.484;2023-04-24T13:39:48;11.70;99.90
19952;DHT22;10137;49.406;19.484;2023-04-24T13:42:15;11.60;99.90
19952;DHT22;10137;49.406;19.484;2023-04-24T13:44:43;11.60;99.90
19952;DHT22;10137;49.406;19.484;2023-04-24T13:47:14;11.60;99.90
19952;DHT22;10137;49.406;19.484;2023-04-24T13:49:41;11.60;99.90
19952;DHT22;10137;49.406;19.484;2023-04-24T13:52:09;11.60;99.90
19952;DHT22;10137;49.406;19.484;2023-04-24T13:54:37;11.50;99.90
19952;DHT22;10137;49.406;19.484;2023-04-24T13:57:07;11.50;99.90
19952;DHT22;10137;49.406;19.484;2023-04-24T13:59:35;11.50;99.90
19952;DHT22;10137;49.406;19.484;2023-04-24T14:02:03;11.50;99.90
19952;DHT22;10137;49.406;19.484;2023-04-24T14:04:31;11.40;99.90
19952;DHT22;10137;49.406;19.484;2023-04-24T14:06:59;11.40;99.90
19952;DHT22;10137;49.406;19.484;2023-04-24T14:09:28;11.30;99.90
19952;DHT22;10137;49.406;19.484;2023-04-24T14:11:55;11.30;99.90
19952;DHT22;10137;49.406;19.484;2023-04-24T14:14:25;11.40;99.90
19952;DHT22;10137;49.406;19.484;2023-04-24T14:16:53;11.50;99.90
19952;DHT22;10137;49.406;19.484;2023-04-24T14:19:25;11.40;99.90
19952;DHT22;10137;49.406;19.484;2023-04-24T14:21:53;11.30;99.90
19952;DHT22;10137;49.406;19.484;2023-04-24T14:24:23;11.20;99.90
19952;DHT22;10137;49.406;19.484;2023-04-24T14:26:50;11.20;99.90
19952;DHT22;10137;49.406;19.484;2023-04-24T14:29:22;11.20;99.90
19952;DHT22;10137;49.406;19.484;2023-04-24T14:31:58;11.20;99.90
19952;DHT22;10137;49.406;19.484;2023-04-24T14:34:27;11.30;99.90
19952;DHT22;10137;49.406;19.484;2023-04-24T14:36:55;11.30;99.90
19952;DHT22;10137;49.406;19.484;2023-04-24T14:39:29;11.30;99.90
19952;DHT22;10137;49.406;19.484;2023-04-24T14:42:00;11.30;99.90
19952;DHT22;10137;49.406;19.484;2023-04-24T14:44:27;11.30;99.90
19952;DHT22;10137;49.406;19.484;2023-04-24T14:47:07;11.30;99.90
19952;DHT22;10137;49.406;19.484;2023-04-24T14:49:35;11.30;99.90
19952;DHT22;10137;49.406;19.484;2023-04-24T14:52:04;11.30;99.90
19952;DHT22;10137;49.406;19.484;2023-04-24T14:54:32;11.30;99.90
19952;DHT22;10137;49.406;19.484;2023-04-24T14:57:02;11.30;99.90
19952;DHT22;10137;49.406;19.484;2023-04-24T14:59:31;11.20;99.90
19952;DHT22;10137;49.406;19.484;2023-04-24T15:01:59;11.20;99.90
19952;DHT22;10137;49.406;19.484;2023-04-24T15:04:29;11.20;99.90
19952;DHT22;10137;49.406;19.484;2023-04-24T15:06:57;11.30;99.90
19952;DHT22;10137;49.406;19.484;2023-04-24T15:09:24;11.30;99.90
19952;DHT22;10137;49.406;19.484;2023-04-24T15:11:52;11.30;99.90
19952;DHT22;10137;49.406;19.484;2023-04-24T15:14:20;11.30;99.90
19952;DHT22;10137;49.406;19.484;2023-04-24T15:16:47;11.20;99.90
19952;DHT22;10137;49.406;19.484;2023-04-24T15:19:16;11.10;99.90
19952;DHT22;10137;49.406;19.484;2023-04-24T15:21:49;11.10;99.90
19952;DHT22;10137;49.406;19.484;2023-04-24T15:24:20;11.00;99.90
19952;DHT22;10137;49.406;19.484;2023-04-24T15:26:48;11.00;99.90
19952;DHT22;10137;49.406;19.484;2023-04-24T15:29:16;10.90;99.90
19952;DHT22;10137;49.406;19.484;2023-04-24T15:31:44;11.00;99.90
19952;DHT22;10137;49.406;19.484;2023-04-24T15:34:12;10.90;99.90
19952;DHT22;10137;49.406;19.484;2023-04-24T15:36:41;10.90;99.90